Time;durP1;ratioP1;P1;durP2;ratioP2;P2;SDS_P1;SDS_P2;PMS_P1;PMS_P2;Temp;Humidity;BMP_temperature;BMP_pressure;BME280_temperature;BME280_humidity;BME280_pressure;Samples;Min_cycle;Max_cycle;Signal;HPM_P1;HPM_P2
2023/03/01 00:01:07;;;;;;;23.70;16.47;;;-0.60;99.90;;;;;;5040615;28;20444;-72
2023/03/01 00:03:33;;;;;;;21.07;17.23;;;-0.60;99.90;;;;;;5031663;28;20795;-73
2023/03/01 00:06:00;;;;;;;25.90;19.70;;;-0.60;99.90;;;;;;5029643;28;20448;-72
2023/03/01 00:08:26;;;;;;;27.47;19.30;;;-0.60;99.90;;;;;;5040567;28;21018;-72
2023/03/01 00:11:04;;;;;;;31.07;19.57;;;-0.60;99.90;;;;;;5032873;28;21170;-73
2023/03/01 00:13:30;;;;;;;27.07;19.07;;;-0.70;99.90;;;;;;5033673;28;20450;-72
2023/03/01 00:15:55;;;;;;;27.23;18.93;;;-0.70;99.90;;;;;;5034403;28;20433;-73
2023/03/01 00:18:22;;;;;;;23.50;18.23;;;-0.70;99.90;;;;;;5046237;28;20233;-73
2023/03/01 00:20:55;;;;;;;21.60;17.63;;;-0.70;99.90;;;;;;5042253;28;20206;-72
2023/03/01 00:23:21;;;;;;;25.23;17.40;;;-0.70;99.90;;;;;;5043065;28;20793;-72
2023/03/01 00:25:47;;;;;;;29.60;19.20;;;-0.80;99.90;;;;;;5045897;28;20459;-72
2023/03/01 00:28:13;;;;;;;21.33;16.90;;;-0.80;99.90;;;;;;5043993;28;20926;-73
2023/03/01 00:30:38;;;;;;;24.60;17.30;;;-0.90;99.90;;;;;;5041185;28;20201;-72
2023/03/01 00:33:04;;;;;;;23.80;15.67;;;-0.90;99.90;;;;;;5039563;28;20189;-73
2023/03/01 00:35:33;;;;;;;22.40;17.87;;;-0.90;99.90;;;;;;5032373;28;20183;-73
2023/03/01 00:37:59;;;;;;;23.70;16.73;;;-0.90;99.90;;;;;;5046545;28;20193;-74
2023/03/01 00:40:25;;;;;;;34.10;22.30;;;-0.90;99.90;;;;;;5032450;28;20554;-73
2023/03/01 00:42:51;;;;;;;24.33;19.10;;;-0.90;99.90;;;;;;5039172;28;20177;-72
2023/03/01 00:45:16;;;;;;;30.37;21.40;;;-0.90;99.90;;;;;;5042936;28;20433;-73
2023/03/01 00:47:42;;;;;;;25.10;19.37;;;-0.90;99.90;;;;;;5044348;28;20551;-73
2023/03/01 00:50:09;;;;;;;25.80;18.87;;;-0.90;99.90;;;;;;5028718;28;20207;-73
2023/03/01 00:52:35;;;;;;;21.93;17.77;;;-0.90;99.90;;;;;;5048335;28;20445;-72
2023/03/01 00:55:01;;;;;;;24.57;17.23;;;-1.00;99.90;;;;;;5043931;28;20812;-73
2023/03/01 00:57:26;;;;;;;23.97;15.87;;;-1.00;99.90;;;;;;5031431;28;20213;-72
2023/03/01 00:59:52;;;;;;;28.27;16.73;;;-1.00;99.90;;;;;;5038902;28;20212;-72
2023/03/01 01:02:18;;;;;;;26.73;16.70;;;-1.10;99.90;;;;;;5029241;28;20190;-72
2023/03/01 01:04:45;;;;;;;23.87;17.57;;;-1.10;99.90;;;;;;5037207;28;20272;-73
2023/03/01 01:07:10;;;;;;;22.50;15.90;;;-1.10;99.90;;;;;;5037072;28;20432;-73
2023/03/01 01:09:36;;;;;;;22.23;17.67;;;-1.10;99.90;;;;;;5034391;28;20478;-73
2023/03/01 01:12:02;;;;;;;25.47;17.67;;;-1.10;99.90;;;;;;5032645;28;20179;-73
2023/03/01 01:14:28;;;;;;;21.30;15.00;;;-1.10;99.90;;;;;;5041762;28;20487;-73
2023/03/01 01:16:53;;;;;;;23.83;16.13;;;-1.10;99.90;;;;;;5044707;28;20827;-73
2023/03/01 01:19:19;;;;;;;23.80;17.20;;;-1.20;99.90;;;;;;5029749;28;20213;-73
2023/03/01 01:21:45;;;;;;;22.30;16.20;;;-1.20;99.90;;;;;;5027798;28;20179;-73
2023/03/01 01:24:11;;;;;;;21.90;15.60;;;-1.20;99.90;;;;;;5033816;28;21529;-73
2023/03/01 01:26:37;;;;;;;21.80;15.83;;;-1.30;99.90;;;;;;5040679;28;20291;-73
2023/03/01 01:29:04;;;;;;;20.70;15.50;;;-1.30;99.90;;;;;;5043935;28;20919;-72
2023/03/01 01:31:31;;;;;;;23.80;16.00;;;-1.40;99.90;;;;;;5033747;28;20173;-72
2023/03/01 01:33:58;;;;;;;20.60;14.80;;;-1.40;99.90;;;;;;5041149;28;20437;-73
2023/03/01 01:36:24;;;;;;;22.30;15.90;;;-1.40;99.90;;;;;;5042367;28;20988;-73
2023/03/01 01:38:49;;;;;;;21.40;15.63;;;-1.40;99.90;;;;;;5037089;28;20456;-72
2023/03/01 01:41:16;;;;;;;21.97;15.50;;;-1.40;99.90;;;;;;5043170;28;20166;-73
2023/03/01 01:43:48;;;;;;;23.03;16.80;;;-1.50;99.90;;;;;;5037131;28;20636;-73
2023/03/01 01:46:25;;;;;;;20.37;16.57;;;-1.50;99.90;;;;;;5025481;28;20452;-73
2023/03/01 01:48:57;;;;;;;18.93;15.03;;;-1.40;99.90;;;;;;5030228;28;21136;-73
2023/03/01 01:51:27;;;;;;;22.50;15.20;;;-1.40;99.90;;;;;;5041905;28;20428;-72
2023/03/01 01:53:58;;;;;;;23.53;16.10;;;-1.40;99.90;;;;;;5030449;28;20520;-73
2023/03/01 01:56:26;;;;;;;21.20;17.57;;;-1.40;99.90;;;;;;5033247;28;20520;-73
2023/03/01 01:58:52;;;;;;;17.90;14.00;;;-1.30;99.90;;;;;;5036729;28;20471;-73
2023/03/01 02:01:18;;;;;;;25.20;17.10;;;-1.30;99.90;;;;;;5043444;28;20783;-72
2023/03/01 02:03:46;;;;;;;16.50;14.37;;;-1.10;99.90;;;;;;5032832;28;20449;-73
2023/03/01 02:06:32;;;;;;;23.90;15.63;;;-1.00;99.90;;;;;;5029408;28;20167;-73
2023/03/01 02:09:04;;;;;;;21.67;15.97;;;-0.90;99.90;;;;;;5022505;28;20461;-72
2023/03/01 02:11:32;;;;;;;20.47;15.87;;;-0.70;99.90;;;;;;5032289;28;20441;-73
2023/03/01 02:13:57;;;;;;;20.87;16.20;;;-0.60;99.90;;;;;;5032139;28;20857;-73
2023/03/01 02:16:24;;;;;;;22.03;16.33;;;-0.50;99.90;;;;;;5033842;28;20465;-73
2023/03/01 02:18:50;;;;;;;23.13;15.90;;;-0.40;99.90;;;;;;5036680;28;20667;-72
2023/03/01 02:21:22;;;;;;;21.90;16.00;;;-0.30;99.90;;;;;;5036653;28;20438;-73
2023/03/01 02:23:47;;;;;;;21.83;14.97;;;-0.20;99.90;;;;;;5039388;28;20516;-72
2023/03/01 02:26:26;;;;;;;21.60;15.50;;;-0.30;99.90;;;;;;5042501;28;20523;-73
2023/03/01 02:28:52;;;;;;;25.83;16.20;;;-0.40;99.90;;;;;;5030566;28;20629;-73
2023/03/01 02:34:06;;;;;;;23.43;17.07;;;-0.40;99.90;;;;;;5039940;28;20189;-72
2023/03/01 02:36:36;;;;;;;20.57;16.53;;;-0.50;99.90;;;;;;5037787;28;20492;-73
2023/03/01 02:39:06;;;;;;;27.53;16.23;;;-0.50;99.90;;;;;;5039967;28;20489;-72
2023/03/01 02:41:36;;;;;;;25.80;16.40;;;-0.30;99.90;;;;;;5040637;28;20432;-72
2023/03/01 02:44:03;;;;;;;21.43;16.03;;;-0.20;99.90;;;;;;5032572;28;20433;-72
2023/03/01 02:46:29;;;;;;;26.37;16.47;;;-0.10;99.90;;;;;;5040418;28;20437;-72
2023/03/01 02:48:58;;;;;;;21.20;15.57;;;-0.10;99.90;;;;;;5035936;28;21014;-73
2023/03/01 02:51:33;;;;;;;22.17;15.70;;;-0.10;99.90;;;;;;5035633;28;20177;-73
2023/03/01 02:54:15;;;;;;;22.70;16.83;;;-0.10;99.90;;;;;;5026171;28;20971;-73
2023/03/01 02:56:42;;;;;;;23.53;16.83;;;0.00;99.90;;;;;;5028718;28;20439;-73
2023/03/01 02:59:09;;;;;;;22.43;15.87;;;0.00;99.90;;;;;;5036366;28;20802;-73
2023/03/01 03:01:37;;;;;;;20.43;14.00;;;0.10;99.90;;;;;;5043320;28;20559;-73
2023/03/01 03:04:09;;;;;;;20.53;17.47;;;0.10;99.90;;;;;;5035347;28;20445;-73
2023/03/01 03:06:35;;;;;;;21.93;15.70;;;0.10;99.90;;;;;;5039289;28;20526;-73
2023/03/01 03:09:01;;;;;;;18.63;15.23;;;0.10;99.90;;;;;;5041644;28;21040;-73
2023/03/01 03:11:26;;;;;;;21.63;14.33;;;0.10;99.90;;;;;;5026228;28;20237;-73
2023/03/01 03:13:52;;;;;;;21.93;16.57;;;0.20;99.90;;;;;;5041975;28;20178;-73
2023/03/01 03:16:19;;;;;;;23.30;17.07;;;0.20;99.90;;;;;;5034130;28;20187;-73
2023/03/01 03:18:44;;;;;;;21.33;15.53;;;0.30;99.90;;;;;;5039917;28;20467;-72
2023/03/01 03:21:11;;;;;;;20.10;15.00;;;0.30;99.90;;;;;;5042694;28;20856;-73
2023/03/01 03:23:37;;;;;;;22.33;16.90;;;0.30;99.90;;;;;;5037498;28;20178;-73
2023/03/01 03:26:04;;;;;;;27.10;18.00;;;0.30;99.90;;;;;;5025758;28;20583;-72
2023/03/01 03:28:30;;;;;;;24.40;17.40;;;0.40;99.90;;;;;;5029281;28;20194;-73
2023/03/01 03:30:57;;;;;;;26.93;15.63;;;0.40;99.90;;;;;;5045898;28;20792;-73
2023/03/01 03:33:22;;;;;;;23.23;17.67;;;0.30;99.90;;;;;;5032641;28;20954;-72
2023/03/01 03:35:49;;;;;;;22.73;16.20;;;0.30;99.90;;;;;;5030819;28;20443;-72
2023/03/01 03:38:18;;;;;;;22.30;17.00;;;0.30;99.90;;;;;;5036745;28;20202;-73
2023/03/01 03:41:07;;;;;;;21.27;16.17;;;0.40;99.90;;;;;;5042422;28;20538;-73
2023/03/01 03:43:34;;;;;;;21.57;16.17;;;0.40;99.90;;;;;;5035179;28;20527;-73
2023/03/01 03:46:00;;;;;;;20.37;14.83;;;0.50;99.90;;;;;;5041984;28;20467;-73
2023/03/01 03:48:26;;;;;;;21.23;16.20;;;0.50;99.90;;;;;;5034779;28;20957;-74
2023/03/01 03:50:54;;;;;;;20.50;15.37;;;0.50;99.90;;;;;;5046000;28;20255;-73
2023/03/01 03:53:21;;;;;;;22.40;16.73;;;0.40;99.90;;;;;;5045669;28;20443;-73
2023/03/01 03:55:49;;;;;;;26.30;18.17;;;0.50;99.90;;;;;;5037003;28;20446;-73
2023/03/01 03:58:16;;;;;;;19.13;15.90;;;0.50;99.90;;;;;;5039357;28;20455;-73
2023/03/01 04:00:43;;;;;;;20.10;14.83;;;0.50;99.90;;;;;;5026815;28;20505;-72
2023/03/01 04:03:11;;;;;;;23.77;16.17;;;0.50;99.90;;;;;;5042125;28;20440;-73
2023/03/01 04:05:37;;;;;;;20.50;16.87;;;0.60;99.90;;;;;;5037312;28;20431;-74
2023/03/01 04:08:06;;;;;;;25.40;17.63;;;0.60;99.90;;;;;;5040172;28;20889;-73
2023/03/01 04:10:36;;;;;;;24.90;17.80;;;0.60;99.90;;;;;;5035936;28;20543;-73
2023/03/01 04:13:01;;;;;;;23.73;16.30;;;0.70;99.90;;;;;;5038527;28;20444;-73
2023/03/01 04:15:27;;;;;;;23.50;16.77;;;0.60;99.90;;;;;;5034417;28;20474;-73
2023/03/01 04:17:54;;;;;;;23.40;17.83;;;0.60;99.90;;;;;;5033597;28;20193;-73
2023/03/01 04:20:26;;;;;;;25.27;18.50;;;0.70;99.90;;;;;;5016699;28;20547;-73
2023/03/01 04:23:10;;;;;;;24.50;16.90;;;0.60;99.90;;;;;;5030966;28;20447;-73
2023/03/01 04:25:46;;;;;;;20.30;16.30;;;0.70;99.90;;;;;;5025813;28;20522;-73
2023/03/01 04:28:12;;;;;;;21.03;16.83;;;0.70;99.90;;;;;;5042377;28;20436;-74
2023/03/01 04:30:38;;;;;;;23.63;16.77;;;0.80;99.90;;;;;;5016988;28;20505;-74
2023/03/01 04:33:08;;;;;;;26.03;18.13;;;0.70;99.90;;;;;;5039611;28;20182;-73
2023/03/01 04:35:36;;;;;;;24.00;16.97;;;0.70;99.90;;;;;;5028617;28;20433;-73
2023/03/01 04:38:02;;;;;;;25.27;17.63;;;0.60;99.90;;;;;;5039814;28;20510;-73
2023/03/01 04:40:27;;;;;;;20.40;16.33;;;0.70;99.90;;;;;;5035944;28;20544;-73
2023/03/01 04:42:53;;;;;;;19.90;16.20;;;0.60;99.90;;;;;;5026450;28;20448;-73
2023/03/01 04:45:19;;;;;;;26.60;18.47;;;0.70;99.90;;;;;;5038684;28;20178;-73
2023/03/01 04:47:46;;;;;;;24.07;18.20;;;0.70;99.90;;;;;;5044876;28;20189;-73
2023/03/01 04:50:16;;;;;;;25.57;16.90;;;0.80;99.90;;;;;;5035299;28;20197;-73
2023/03/01 04:52:44;;;;;;;20.93;16.43;;;0.80;99.90;;;;;;5035156;28;20432;-73
2023/03/01 04:55:10;;;;;;;27.23;17.97;;;0.70;99.90;;;;;;5036420;28;20433;-73
2023/03/01 04:57:35;;;;;;;24.47;18.27;;;0.80;99.90;;;;;;5037890;28;20471;-73
2023/03/01 05:00:01;;;;;;;24.40;16.23;;;0.70;99.90;;;;;;5032486;28;20958;-73
2023/03/01 05:02:26;;;;;;;23.33;17.90;;;0.70;99.90;;;;;;5028834;28;20667;-73
2023/03/01 05:04:52;;;;;;;23.07;17.50;;;0.70;99.90;;;;;;5035509;28;20174;-73
2023/03/01 05:07:19;;;;;;;23.07;17.23;;;0.70;99.90;;;;;;5040694;28;20188;-72
2023/03/01 05:09:48;;;;;;;21.60;17.50;;;0.70;99.90;;;;;;5044136;28;20200;-73
2023/03/01 05:12:14;;;;;;;22.00;17.57;;;0.70;99.90;;;;;;5038055;28;20450;-73
2023/03/01 05:14:41;;;;;;;25.33;18.00;;;0.70;99.90;;;;;;5034340;28;20441;-73
2023/03/01 05:17:07;;;;;;;24.03;18.13;;;0.80;99.90;;;;;;5039847;28;20436;-73
2023/03/01 05:19:33;;;;;;;24.47;16.63;;;0.80;99.90;;;;;;5041779;28;20844;-72
2023/03/01 05:22:01;;;;;;;27.67;21.17;;;0.80;99.90;;;;;;5042125;28;20428;-72
2023/03/01 05:24:27;;;;;;;24.73;18.33;;;0.80;99.90;;;;;;5048870;28;20182;-72
2023/03/01 05:26:53;;;;;;;29.30;20.00;;;0.80;99.90;;;;;;5034419;28;20459;-72
2023/03/01 05:29:24;;;;;;;27.07;17.43;;;0.90;99.90;;;;;;5041118;28;20884;-72
2023/03/01 05:32:02;;;;;;;24.20;16.80;;;0.90;99.90;;;;;;5045591;28;20174;-72
2023/03/01 05:34:31;;;;;;;29.00;20.70;;;0.90;99.90;;;;;;5034175;28;20440;-72
2023/03/01 05:36:57;;;;;;;22.90;17.90;;;0.90;99.90;;;;;;5038407;28;20429;-72
2023/03/01 05:39:24;;;;;;;26.27;17.43;;;0.80;99.90;;;;;;5032367;28;20464;-72
2023/03/01 05:41:55;;;;;;;30.70;20.30;;;0.90;99.90;;;;;;5046137;28;20675;-72
2023/03/01 05:44:21;;;;;;;28.03;18.30;;;0.90;99.90;;;;;;5038823;28;20437;-72
2023/03/01 05:46:47;;;;;;;25.20;19.70;;;0.90;99.90;;;;;;5040874;28;20791;-73
2023/03/01 05:49:15;;;;;;;23.70;17.70;;;1.00;99.90;;;;;;5043381;28;20461;-72
2023/03/01 05:51:42;;;;;;;24.33;16.37;;;1.10;99.90;;;;;;5029308;28;20227;-72
2023/03/01 05:54:09;;;;;;;24.47;18.77;;;1.00;99.90;;;;;;5036064;28;20467;-72
2023/03/01 05:56:35;;;;;;;27.07;19.43;;;1.10;99.90;;;;;;5038990;28;20444;-72
2023/03/01 05:59:02;;;;;;;26.37;19.40;;;1.00;99.90;;;;;;5034834;28;20475;-72
2023/03/01 06:01:29;;;;;;;24.30;18.03;;;1.00;99.90;;;;;;5036637;28;20803;-72
2023/03/01 06:03:55;;;;;;;24.30;17.53;;;1.00;99.90;;;;;;5028002;28;20441;-73
2023/03/01 06:06:21;;;;;;;23.80;19.50;;;1.00;99.90;;;;;;5021795;28;20441;-72
2023/03/01 06:08:46;;;;;;;25.67;18.23;;;0.90;99.90;;;;;;5031438;28;20445;-72
2023/03/01 06:11:12;;;;;;;25.50;17.43;;;1.00;99.90;;;;;;5026643;28;20179;-72
2023/03/01 06:13:37;;;;;;;25.50;18.60;;;1.10;99.90;;;;;;5024550;28;20197;-72
2023/03/01 06:16:06;;;;;;;24.70;18.70;;;1.10;99.90;;;;;;5030443;28;20178;-72
2023/03/01 06:18:32;;;;;;;22.37;18.17;;;1.10;99.90;;;;;;5030372;28;20218;-72
2023/03/01 06:20:58;;;;;;;23.00;17.20;;;1.10;99.90;;;;;;5024684;28;20442;-72
2023/03/01 06:23:24;;;;;;;26.90;18.57;;;1.10;99.90;;;;;;5037523;28;20186;-72
2023/03/01 06:25:49;;;;;;;26.30;20.17;;;1.10;99.90;;;;;;5032895;28;20163;-72
2023/03/01 06:28:15;;;;;;;28.03;18.47;;;1.20;99.90;;;;;;5032157;28;20925;-72
2023/03/01 06:30:40;;;;;;;25.17;18.47;;;1.20;99.90;;;;;;5032693;28;20201;-72
2023/03/01 06:33:06;;;;;;;26.57;17.10;;;1.20;99.90;;;;;;5032800;28;20185;-72
2023/03/01 06:35:32;;;;;;;30.40;19.60;;;1.20;99.90;;;;;;5032749;28;20551;-72
2023/03/01 06:37:59;;;;;;;26.27;19.40;;;1.30;99.90;;;;;;5037216;28;20185;-72
2023/03/01 06:40:25;;;;;;;23.87;16.77;;;1.20;99.90;;;;;;5023664;28;20285;-72
2023/03/01 06:42:51;;;;;;;24.30;18.27;;;1.20;99.90;;;;;;5025701;28;20515;-72
2023/03/01 06:45:18;;;;;;;23.60;18.70;;;1.20;99.90;;;;;;5040772;28;20262;-72
2023/03/01 06:47:44;;;;;;;22.90;17.07;;;1.20;99.90;;;;;;5052619;28;20474;-72
2023/03/01 06:50:10;;;;;;;24.07;18.30;;;1.40;99.90;;;;;;5037144;28;20441;-72
2023/03/01 06:52:37;;;;;;;27.73;18.30;;;1.50;99.90;;;;;;5031460;28;20635;-72
2023/03/01 06:55:04;;;;;;;24.93;17.00;;;1.70;99.90;;;;;;5030388;28;20503;-72
2023/03/01 06:57:30;;;;;;;27.53;18.87;;;1.90;99.90;;;;;;5026433;28;20459;-71
2023/03/01 06:59:55;;;;;;;26.73;17.03;;;1.90;99.90;;;;;;5028202;28;20469;-71
2023/03/01 07:02:21;;;;;;;24.80;16.73;;;2.00;99.90;;;;;;5028040;28;20176;-70
2023/03/01 07:04:48;;;;;;;26.90;18.17;;;2.20;99.90;;;;;;5040881;28;20193;-71
2023/03/01 07:07:13;;;;;;;21.80;17.50;;;2.40;99.90;;;;;;5034407;28;20671;-73
2023/03/01 07:09:39;;;;;;;23.70;18.37;;;2.70;99.90;;;;;;5035324;28;20464;-72
2023/03/01 07:12:05;;;;;;;26.13;17.27;;;2.80;99.90;;;;;;5024145;28;20186;-73
2023/03/01 07:14:30;;;;;;;23.33;18.00;;;2.90;99.90;;;;;;5029084;28;20644;-73
2023/03/01 07:16:56;;;;;;;26.27;18.00;;;3.00;99.90;;;;;;5023959;28;20453;-73
2023/03/01 07:19:22;;;;;;;22.30;17.50;;;3.10;99.90;;;;;;5030644;28;20214;-73
2023/03/01 07:21:48;;;;;;;23.83;19.47;;;3.10;99.90;;;;;;5030349;28;20189;-72
2023/03/01 07:24:14;;;;;;;28.93;18.67;;;3.20;99.90;;;;;;5046955;28;20424;-72
2023/03/01 07:26:39;;;;;;;23.80;17.87;;;3.40;99.90;;;;;;5051726;28;20165;-73
2023/03/01 07:29:07;;;;;;;22.47;17.73;;;3.50;99.90;;;;;;5039905;28;21020;-72
2023/03/01 07:31:33;;;;;;;25.07;18.43;;;3.50;99.90;;;;;;5040752;28;20190;-73
2023/03/01 07:33:58;;;;;;;24.43;19.17;;;3.60;99.90;;;;;;5031691;28;20576;-73
2023/03/01 07:36:24;;;;;;;24.90;18.50;;;3.90;99.90;;;;;;5024413;28;20182;-72
2023/03/01 07:38:50;;;;;;;23.70;18.97;;;4.10;99.90;;;;;;5029830;28;20697;-72
2023/03/01 07:41:16;;;;;;;28.10;20.70;;;4.20;99.90;;;;;;5022288;28;20224;-72
2023/03/01 07:43:42;;;;;;;25.30;19.33;;;4.40;99.90;;;;;;5024076;28;20445;-73
2023/03/01 07:46:07;;;;;;;26.03;19.30;;;4.50;99.90;;;;;;5019690;28;20613;-73
2023/03/01 07:48:33;;;;;;;25.57;19.63;;;4.60;99.90;;;;;;5031092;28;20220;-72
2023/03/01 07:51:04;;;;;;;26.73;19.30;;;4.80;99.90;;;;;;5022889;28;20277;-72
2023/03/01 07:53:31;;;;;;;23.80;18.10;;;5.00;99.90;;;;;;5025245;28;20445;-72
2023/03/01 07:56:04;;;;;;;23.53;18.53;;;5.10;99.90;;;;;;5030087;28;20463;-72
2023/03/01 07:58:29;;;;;;;23.63;19.40;;;5.40;99.90;;;;;;5027116;28;20476;-72
2023/03/01 08:00:55;;;;;;;24.87;18.77;;;5.60;99.90;;;;;;5020779;28;20807;-72
2023/03/01 08:03:20;;;;;;;27.23;20.23;;;5.80;99.90;;;;;;5031227;28;20184;-71
2023/03/01 08:05:46;;;;;;;25.57;18.23;;;6.10;99.90;;;;;;5034116;28;20465;-71
2023/03/01 08:08:11;;;;;;;24.97;20.20;;;6.20;99.90;;;;;;5027858;28;20217;-72
2023/03/01 08:10:37;;;;;;;25.20;20.00;;;6.20;99.90;;;;;;5036125;28;20207;-71
2023/03/01 08:13:02;;;;;;;23.30;18.50;;;6.30;99.90;;;;;;5046457;28;20228;-72
2023/03/01 08:15:28;;;;;;;28.23;19.40;;;6.60;99.90;;;;;;5032909;28;20643;-71
2023/03/01 08:17:53;;;;;;;23.80;19.17;;;6.60;99.90;;;;;;5034682;28;20213;-72
2023/03/01 08:20:19;;;;;;;26.07;19.47;;;6.50;99.90;;;;;;5028931;28;20212;-71
2023/03/01 08:22:45;;;;;;;27.33;19.53;;;6.70;99.90;;;;;;5030760;28;20716;-71
2023/03/01 08:25:10;;;;;;;23.53;18.23;;;7.00;99.90;;;;;;5032259;28;20186;-71
2023/03/01 08:27:36;;;;;;;23.00;19.00;;;7.30;99.90;;;;;;5031997;28;20229;-72
2023/03/01 08:30:01;;;;;;;22.53;18.80;;;7.90;99.90;;;;;;5034077;28;20289;-71
2023/03/01 08:32:27;;;;;;;24.30;20.50;;;8.20;99.00;;;;;;5038952;28;20276;-72
2023/03/01 08:34:52;;;;;;;26.33;19.20;;;8.20;98.30;;;;;;5035709;28;20216;-72
2023/03/01 08:37:18;;;;;;;25.43;20.37;;;8.40;97.50;;;;;;5026678;28;20199;-72
2023/03/01 08:39:43;;;;;;;27.17;20.10;;;8.50;96.50;;;;;;5029621;28;20213;-71
2023/03/01 08:42:09;;;;;;;22.30;19.37;;;8.40;96.10;;;;;;5027249;28;20182;-71
2023/03/01 08:44:34;;;;;;;26.23;19.97;;;8.80;96.10;;;;;;5032473;28;20844;-72
2023/03/01 08:47:02;;;;;;;23.77;19.30;;;8.70;95.20;;;;;;5028768;28;20308;-72
2023/03/01 08:49:27;;;;;;;24.83;20.97;;;8.80;95.40;;;;;;5028384;28;20903;-72
2023/03/01 08:51:53;;;;;;;27.83;21.07;;;9.20;94.40;;;;;;5027562;28;20516;-72
2023/03/01 08:54:20;;;;;;;28.63;19.57;;;9.60;93.30;;;;;;5027860;28;20192;-73
2023/03/01 08:56:46;;;;;;;22.53;19.93;;;10.60;91.90;;;;;;5023942;28;20178;-72
2023/03/01 08:59:13;;;;;;;23.63;21.13;;;10.70;89.30;;;;;;5030928;28;20475;-72
2023/03/01 09:01:39;;;;;;;24.47;21.13;;;10.70;87.90;;;;;;5036035;28;20253;-72
2023/03/01 09:04:06;;;;;;;27.40;23.17;;;11.00;86.40;;;;;;5029722;28;20433;-73
2023/03/01 09:06:33;;;;;;;22.93;20.00;;;11.60;83.70;;;;;;5030046;28;20441;-73
2023/03/01 09:08:59;;;;;;;24.13;21.33;;;12.10;80.00;;;;;;5025672;28;20932;-71
2023/03/01 09:11:24;;;;;;;26.20;21.17;;;12.20;78.30;;;;;;5032973;28;20801;-72
2023/03/01 09:13:50;;;;;;;24.17;21.20;;;12.50;76.90;;;;;;5035421;28;20448;-71
2023/03/01 09:16:19;;;;;;;22.30;20.10;;;12.70;74.10;;;;;;5020249;28;20179;-72
2023/03/01 09:18:48;;;;;;;23.60;20.60;;;13.00;72.30;;;;;;5023320;28;20560;-71
2023/03/01 09:21:16;;;;;;;24.97;22.50;;;12.20;73.50;;;;;;5029188;28;20462;-71
2023/03/01 09:23:46;;;;;;;26.00;23.50;;;12.30;73.30;;;;;;5029271;28;20451;-71
2023/03/01 09:26:16;;;;;;;25.80;23.13;;;12.30;72.90;;;;;;5029307;28;20952;-71
2023/03/01 09:28:42;;;;;;;23.97;21.57;;;12.90;72.00;;;;;;5029673;28;20438;-71
2023/03/01 09:31:07;;;;;;;25.00;22.47;;;13.30;68.80;;;;;;5029146;28;21013;-72
2023/03/01 09:33:33;;;;;;;22.87;20.30;;;13.20;67.90;;;;;;5030628;28;20198;-72
2023/03/01 09:36:04;;;;;;;25.10;22.77;;;13.60;68.30;;;;;;5030643;28;20546;-69
2023/03/01 09:38:30;;;;;;;26.33;23.57;;;14.30;65.30;;;;;;5030136;28;20557;-72
2023/03/01 09:40:56;;;;;;;24.50;21.87;;;13.80;64.40;;;;;;5035148;28;20468;-72
2023/03/01 09:43:34;;;;;;;25.40;22.73;;;13.50;64.20;;;;;;5027780;28;20437;-71
2023/03/01 09:46:04;;;;;;;25.83;22.90;;;13.80;64.20;;;;;;5030562;28;20249;-71
2023/03/01 09:48:38;;;;;;;26.17;23.67;;;13.70;63.60;;;;;;5030433;28;20460;-71
2023/03/01 09:51:12;;;;;;;23.70;21.30;;;14.60;62.60;;;;;;5034841;28;20443;-71
2023/03/01 09:53:38;;;;;;;24.30;22.00;;;14.20;60.30;;;;;;5040265;28;20480;-69
2023/03/01 09:56:29;;;;;;;26.93;24.20;;;14.40;59.80;;;;;;5032237;28;20468;-72
2023/03/01 09:59:13;;;;;;;23.47;21.10;;;14.60;59.00;;;;;;5026537;28;20251;-72
2023/03/01 10:01:48;;;;;;;25.20;22.67;;;14.60;58.70;;;;;;5030847;28;20437;-71
2023/03/01 10:04:32;;;;;;;23.27;20.90;;;15.00;58.10;;;;;;5026528;28;20440;-69
2023/03/01 10:07:10;;;;;;;26.57;23.53;;;15.70;58.00;;;;;;5022443;28;20448;-70
2023/03/01 10:09:38;;;;;;;23.20;21.10;;;16.90;57.40;;;;;;5033970;28;20968;-70
2023/03/01 10:12:31;;;;;;;25.27;22.77;;;16.90;55.30;;;;;;5019401;28;21165;-73
2023/03/01 10:15:17;;;;;;;26.67;24.00;;;16.20;55.50;;;;;;5021968;28;20592;-72
2023/03/01 10:17:57;;;;;;;25.00;22.47;;;16.60;54.60;;;;;;5018309;28;20473;-71
2023/03/01 10:20:39;;;;;;;23.37;21.07;;;16.70;54.00;;;;;;5024803;28;20480;-71
2023/03/01 10:23:08;;;;;;;25.63;22.47;;;17.10;52.90;;;;;;5023327;28;20986;-72
2023/03/01 10:25:52;;;;;;;24.13;21.77;;;16.30;53.20;;;;;;5018425;28;20999;-73
2023/03/01 10:28:35;;;;;;;24.33;21.80;;;16.30;53.30;;;;;;5017831;28;20547;-71
2023/03/01 10:31:03;;;;;;;23.43;21.13;;;16.50;52.60;;;;;;5020456;28;20436;-72
2023/03/01 10:33:39;;;;;;;24.00;21.70;;;17.50;52.40;;;;;;5023227;28;20453;-70
2023/03/01 10:36:05;;;;;;;23.97;21.50;;;18.40;50.70;;;;;;5020629;28;20445;-69
2023/03/01 10:38:54;;;;;;;24.27;21.97;;;18.90;49.70;;;;;;5023783;28;20477;-69
2023/03/01 10:41:24;;;;;;;24.73;22.33;;;19.20;46.80;;;;;;5020840;28;20783;-70
2023/03/01 10:43:57;;;;;;;25.20;22.80;;;19.10;46.70;;;;;;5030521;28;20846;-69
2023/03/01 10:46:36;;;;;;;24.00;21.90;;;19.70;45.80;;;;;;5020248;28;21008;-69
2023/03/01 10:49:07;;;;;;;24.73;22.43;;;19.40;45.30;;;;;;5025456;28;20472;-70
2023/03/01 10:51:32;;;;;;;24.57;22.37;;;19.80;45.10;;;;;;5019281;28;20524;-70
2023/03/01 10:53:58;;;;;;;24.63;22.63;;;19.20;44.80;;;;;;5032529;28;20527;-69
2023/03/01 10:56:25;;;;;;;23.47;21.27;;;19.20;44.70;;;;;;5023834;28;20556;-69
2023/03/01 10:59:03;;;;;;;24.07;21.97;;;19.40;44.40;;;;;;5027284;28;20259;-70
2023/03/01 11:01:32;;;;;;;23.37;21.50;;;19.90;44.30;;;;;;5026608;28;20446;-69
2023/03/01 11:04:12;;;;;;;24.40;22.20;;;20.20;43.30;;;;;;5030523;28;20953;-70
2023/03/01 11:06:41;;;;;;;23.70;21.60;;;21.50;42.90;;;;;;5026194;28;20472;-70
2023/03/01 11:09:21;;;;;;;26.47;23.97;;;21.60;42.00;;;;;;5028569;28;20825;-70
2023/03/01 11:11:54;;;;;;;24.30;21.97;;;21.90;41.90;;;;;;5022706;28;20440;-70
2023/03/01 11:14:24;;;;;;;21.57;19.83;;;21.70;40.90;;;;;;5035594;28;20482;-70
2023/03/01 11:17:22;;;;;;;22.87;20.90;;;21.50;41.00;;;;;;5034420;28;22461;-70
2023/03/01 11:20:13;;;;;;;22.40;20.50;;;21.90;39.80;;;;;;5011318;28;20469;-67
2023/03/01 11:22:51;;;;;;;23.00;21.00;;;22.10;39.20;;;;;;5020681;28;20494;-70
2023/03/01 11:25:19;;;;;;;24.73;22.43;;;22.10;39.10;;;;;;5031719;28;20922;-70
2023/03/01 11:27:46;;;;;;;23.63;21.63;;;21.80;39.60;;;;;;5031881;28;20417;-70
2023/03/01 11:30:28;;;;;;;22.83;20.93;;;21.20;39.40;;;;;;5030875;28;20921;-69
2023/03/01 11:33:11;;;;;;;22.83;20.63;;;20.70;39.60;;;;;;5041211;28;20925;-70
2023/03/01 11:35:50;;;;;;;21.00;19.00;;;20.10;40.30;;;;;;5051633;28;20447;-68
2023/03/01 11:38:27;;;;;;;23.53;21.13;;;19.30;40.50;;;;;;5036850;28;20448;-68
2023/03/01 11:40:59;;;;;;;22.10;20.00;;;19.20;41.30;;;;;;5035287;28;20441;-66
2023/03/01 11:43:33;;;;;;;21.17;19.20;;;19.30;41.20;;;;;;5035761;28;20863;-66
2023/03/01 11:46:31;;;;;;;23.77;21.57;;;19.00;41.00;;;;;;5035624;28;20452;-67
2023/03/01 11:49:03;;;;;;;21.00;19.07;;;18.60;41.40;;;;;;5034920;28;20436;-70
2023/03/01 11:51:40;;;;;;;22.03;19.87;;;18.30;41.50;;;;;;5035762;28;20425;-69
2023/03/01 11:54:17;;;;;;;24.30;21.90;;;18.50;41.80;;;;;;5035434;28;20511;-67
2023/03/01 11:56:57;;;;;;;22.90;20.80;;;20.30;40.50;;;;;;5035464;28;20420;-66
2023/03/01 11:59:22;;;;;;;22.40;20.17;;;20.90;39.30;;;;;;5031756;28;20537;-67
2023/03/01 12:02:00;;;;;;;22.90;20.60;;;20.10;39.80;;;;;;5035385;28;20444;-70
2023/03/01 12:04:59;;;;;;;23.50;21.00;;;20.20;39.70;;;;;;5035315;28;20174;-71
2023/03/01 12:08:20;;;;;;;20.67;18.97;;;20.90;39.00;;;;;;5034489;28;20413;-71
2023/03/01 12:10:51;;;;;;;22.10;20.10;;;21.70;38.40;;;;;;5032894;28;20449;-74
2023/03/01 12:13:27;;;;;;;21.80;19.60;;;21.50;38.20;;;;;;5035003;28;20855;-72
2023/03/01 12:15:52;;;;;;;23.10;21.07;;;20.60;38.70;;;;;;5035647;28;20508;-73
2023/03/01 12:18:52;;;;;;;23.23;21.00;;;20.40;39.70;;;;;;5034033;28;21048;-71
2023/03/01 12:21:35;;;;;;;23.20;21.10;;;21.30;39.00;;;;;;5035009;28;20181;-71
2023/03/01 12:24:25;;;;;;;23.20;21.10;;;22.20;39.50;;;;;;5034132;28;20413;-71
2023/03/01 12:27:07;;;;;;;21.47;19.40;;;22.40;38.80;;;;;;5034789;28;20980;-73
2023/03/01 12:29:52;;;;;;;22.50;20.43;;;22.50;39.30;;;;;;5034189;28;20855;-73
2023/03/01 12:32:52;;;;;;;23.77;21.67;;;23.70;38.70;;;;;;5034846;28;20419;-70
2023/03/01 12:35:34;;;;;;;22.73;20.77;;;23.70;38.20;;;;;;5034794;28;20405;-71
2023/03/01 12:38:12;;;;;;;23.03;21.07;;;23.00;39.00;;;;;;5034796;28;20448;-73
2023/03/01 12:40:48;;;;;;;20.50;18.63;;;23.20;39.00;;;;;;5034804;28;20785;-72
2023/03/01 12:43:39;;;;;;;21.33;19.43;;;23.00;38.60;;;;;;5034734;28;20446;-72
2023/03/01 12:46:25;;;;;;;22.60;20.70;;;22.10;39.10;;;;;;5034788;28;21159;-71